sensor_id;sensor_type;location;lat;lon;timestamp;pressure;altitude;pressure_sealevel;temperature;humidity
55066;BME280;40964;42.114;24.220;2023-04-26T00:02:01;96897.53;;;11.83;100.00
55066;BME280;40964;42.114;24.220;2023-04-26T00:04:28;96887.47;;;11.80;100.00
55066;BME280;40964;42.114;24.220;2023-04-26T00:06:55;96890.00;;;11.75;100.00
55066;BME280;40964;42.114;24.220;2023-04-26T00:09:20;96878.66;;;11.70;100.00
55066;BME280;40964;42.114;24.220;2023-04-26T00:11:46;96876.97;;;11.63;100.00
55066;BME280;40964;42.114;24.220;2023-04-26T00:14:11;96868.94;;;11.75;100.00
55066;BME280;40964;42.114;24.220;2023-04-26T00:16:36;96860.44;;;11.68;100.00
55066;BME280;40964;42.114;24.220;2023-04-26T00:19:05;96852.41;;;11.58;100.00
55066;BME280;40964;42.114;24.220;2023-04-26T00:21:31;96852.38;;;11.53;100.00
55066;BME280;40964;42.114;24.220;2023-04-26T00:23:56;96854.94;;;11.48;100.00
55066;BME280;40964;42.114;24.220;2023-04-26T00:26:22;96846.47;;;11.46;100.00
55066;BME280;40964;42.114;24.220;2023-04-26T00:28:47;96837.66;;;11.35;100.00
55066;BME280;40964;42.114;24.220;2023-04-26T00:31:14;96837.66;;;11.35;100.00
55066;BME280;40964;42.114;24.220;2023-04-26T00:33:40;96842.38;;;11.33;100.00
55066;BME280;40964;42.114;24.220;2023-04-26T00:36:05;96840.72;;;11.27;100.00
55066;BME280;40964;42.114;24.220;2023-04-26T00:38:31;96840.72;;;11.27;100.00
55066;BME280;40964;42.114;24.220;2023-04-26T00:40:56;96832.44;;;11.18;100.00
55066;BME280;40964;42.114;24.220;2023-04-26T00:43:22;96827.44;;;11.17;100.00
55066;BME280;40964;42.114;24.220;2023-04-26T00:45:48;96821.31;;;11.11;100.00
55066;BME280;40964;42.114;24.220;2023-04-26T00:48:14;96816.78;;;11.06;100.00
55066;BME280;40964;42.114;24.220;2023-04-26T00:50:40;96819.50;;;10.95;100.00
55066;BME280;40964;42.114;24.220;2023-04-26T00:53:07;96816.16;;;10.99;100.00
55066;BME280;40964;42.114;24.220;2023-04-26T00:55:33;96792.13;;;10.74;100.00
55066;BME280;40964;42.114;24.220;2023-04-26T00:57:59;96812.75;;;10.82;100.00
55066;BME280;40964;42.114;24.220;2023-04-26T01:00:24;96807.00;;;10.85;100.00
55066;BME280;40964;42.114;24.220;2023-04-26T01:02:50;96808.59;;;10.86;100.00
55066;BME280;40964;42.114;24.220;2023-04-26T01:05:16;96809.09;;;10.83;100.00
55066;BME280;40964;42.114;24.220;2023-04-26T01:07:42;96802.56;;;10.69;100.00
55066;BME280;40964;42.114;24.220;2023-04-26T01:10:08;96796.75;;;10.67;100.00
55066;BME280;40964;42.114;24.220;2023-04-26T01:15:10;96789.91;;;10.49;100.00
55066;BME280;40964;42.114;24.220;2023-04-26T01:17:36;96779.00;;;10.40;100.00
55066;BME280;40964;42.114;24.220;2023-04-26T01:20:05;96804.50;;;10.40;100.00
55066;BME280;40964;42.114;24.220;2023-04-26T01:22:33;96802.84;;;10.34;100.00
55066;BME280;40964;42.114;24.220;2023-04-26T01:25:00;96807.63;;;10.37;100.00
55066;BME280;40964;42.114;24.220;2023-04-26T01:27:28;96815.41;;;10.32;100.00
55066;BME280;40964;42.114;24.220;2023-04-26T01:29:53;96813.97;;;10.24;100.00
55066;BME280;40964;42.114;24.220;2023-04-26T01:32:19;96824.13;;;10.20;99.14
55066;BME280;40964;42.114;24.220;2023-04-26T01:34:45;96800.19;;;9.88;99.53
55066;BME280;40964;42.114;24.220;2023-04-26T01:37:10;96837.38;;;9.97;100.00
55066;BME280;40964;42.114;24.220;2023-04-26T01:39:36;96835.16;;;9.89;100.00
55066;BME280;40964;42.114;24.220;2023-04-26T01:42:02;96839.81;;;9.87;100.00
55066;BME280;40964;42.114;24.220;2023-04-26T01:44:29;96830.91;;;9.88;100.00
55066;BME280;40964;42.114;24.220;2023-04-26T01:46:54;96839.28;;;9.85;100.00
55066;BME280;40964;42.114;24.220;2023-04-26T01:49:20;96848.19;;;9.84;100.00
55066;BME280;40964;42.114;24.220;2023-04-26T01:51:45;96846.66;;;9.88;100.00
55066;BME280;40964;42.114;24.220;2023-04-26T01:54:11;96841.03;;;9.96;100.00
55066;BME280;40964;42.114;24.220;2023-04-26T01:56:36;96832.28;;;9.90;100.00
55066;BME280;40964;42.114;24.220;2023-04-26T01:59:02;96834.19;;;9.95;100.00
55066;BME280;40964;42.114;24.220;2023-04-26T02:01:27;96837.38;;;9.97;100.00
55066;BME280;40964;42.114;24.220;2023-04-26T02:03:53;96829.50;;;9.97;100.00
55066;BME280;40964;42.114;24.220;2023-04-26T02:06:19;96824.81;;;9.99;100.00
55066;BME280;40964;42.114;24.220;2023-04-26T02:08:45;96822.44;;;9.98;100.00
55066;BME280;40964;42.114;24.220;2023-04-26T02:11:11;96818.81;;;9.87;100.00
55066;BME280;40964;42.114;24.220;2023-04-26T02:13:36;96823.03;;;9.88;100.00
55066;BME280;40964;42.114;24.220;2023-04-26T02:16:03;96836.41;;;9.86;100.00
55066;BME280;40964;42.114;24.220;2023-04-26T02:18:28;96839.75;;;9.82;100.00
55066;BME280;40964;42.114;24.220;2023-04-26T02:20:54;96827.34;;;9.65;100.00
55066;BME280;40964;42.114;24.220;2023-04-26T02:23:20;96832.63;;;9.65;100.00
55066;BME280;40964;42.114;24.220;2023-04-26T02:25:46;96848.91;;;9.67;100.00
55066;BME280;40964;42.114;24.220;2023-04-26T02:28:13;96851.00;;;9.65;100.00
55066;BME280;40964;42.114;24.220;2023-04-26T02:30:40;96847.69;;;9.58;100.00
55066;BME280;40964;42.114;24.220;2023-04-26T02:33:06;96846.69;;;9.48;100.00
55066;BME280;40964;42.114;24.220;2023-04-26T02:35:32;96849.81;;;9.45;100.00
55066;BME280;40964;42.114;24.220;2023-04-26T02:37:58;96840.91;;;9.34;100.00
55066;BME280;40964;42.114;24.220;2023-04-26T02:40:23;96828.25;;;9.31;100.00
55066;BME280;40964;42.114;24.220;2023-04-26T02:42:49;96822.78;;;9.32;100.00
55066;BME280;40964;42.114;24.220;2023-04-26T02:45:14;96823.13;;;9.36;100.00
55066;BME280;40964;42.114;24.220;2023-04-26T02:47:40;96827.78;;;9.34;100.00
55066;BME280;40964;42.114;24.220;2023-04-26T02:50:06;96820.94;;;9.33;100.00
55066;BME280;40964;42.114;24.220;2023-04-26T02:52:32;96813.66;;;9.35;100.00
55066;BME280;40964;42.114;24.220;2023-04-26T02:54:58;96808.72;;;9.38;100.00
55066;BME280;40964;42.114;24.220;2023-04-26T02:57:23;96813.75;;;9.40;100.00
55066;BME280;40964;42.114;24.220;2023-04-26T02:59:49;96809.53;;;9.39;100.00
55066;BME280;40964;42.114;24.220;2023-04-26T03:02:14;96817.28;;;9.34;100.00
55066;BME280;40964;42.114;24.220;2023-04-26T03:04:40;96813.53;;;9.30;100.00
55066;BME280;40964;42.114;24.220;2023-04-26T03:07:06;96818.44;;;9.38;100.00
55066;BME280;40964;42.114;24.220;2023-04-26T03:09:32;96819.13;;;9.33;100.00
55066;BME280;40964;42.114;24.220;2023-04-26T03:11:59;96800.56;;;9.23;100.00
55066;BME280;40964;42.114;24.220;2023-04-26T03:14:24;96800.56;;;9.23;100.00
55066;BME280;40964;42.114;24.220;2023-04-26T03:16:50;96812.50;;;9.31;100.00
55066;BME280;40964;42.114;24.220;2023-04-26T03:19:16;96821.09;;;9.26;100.00
55066;BME280;40964;42.114;24.220;2023-04-26T03:21:41;96819.72;;;9.24;100.00
55066;BME280;40964;42.114;24.220;2023-04-26T03:24:07;96817.44;;;9.27;100.00
55066;BME280;40964;42.114;24.220;2023-04-26T03:26:32;96828.72;;;9.28;100.00
55066;BME280;40964;42.114;24.220;2023-04-26T03:28:58;96831.91;;;9.30;100.00
55066;BME280;40964;42.114;24.220;2023-04-26T03:31:23;96832.81;;;9.24;100.00
55066;BME280;40964;42.114;24.220;2023-04-26T03:33:49;96842.31;;;9.13;100.00
55066;BME280;40964;42.114;24.220;2023-04-26T03:36:14;96831.84;;;9.01;100.00
55066;BME280;40964;42.114;24.220;2023-04-26T03:38:41;96846.56;;;8.91;100.00
55066;BME280;40964;42.114;24.220;2023-04-26T03:41:07;96851.44;;;8.87;100.00
55066;BME280;40964;42.114;24.220;2023-04-26T03:43:32;96840.63;;;8.84;100.00
55066;BME280;40964;42.114;24.220;2023-04-26T03:45:59;96833.56;;;8.84;100.00
55066;BME280;40964;42.114;24.220;2023-04-26T03:48:25;96847.25;;;8.86;100.00
55066;BME280;40964;42.114;24.220;2023-04-26T03:50:51;96848.84;;;8.87;100.00
55066;BME280;40964;42.114;24.220;2023-04-26T03:53:17;96835.03;;;9.03;100.00
55066;BME280;40964;42.114;24.220;2023-04-26T03:55:42;96832.66;;;9.54;100.00
55066;BME280;40964;42.114;24.220;2023-04-26T03:58:07;96841.47;;;10.05;100.00
55066;BME280;40964;42.114;24.220;2023-04-26T04:00:35;96838.97;;;10.60;100.00
55066;BME280;40964;42.114;24.220;2023-04-26T04:03:01;96840.16;;;10.86;99.74
55066;BME280;40964;42.114;24.220;2023-04-26T04:05:27;96849.06;;;11.02;96.79
55066;BME280;40964;42.114;24.220;2023-04-26T04:07:52;96845.41;;;11.03;96.66
55066;BME280;40964;42.114;24.220;2023-04-26T04:10:18;96847.34;;;11.51;95.59
55066;BME280;40964;42.114;24.220;2023-04-26T04:15:20;96856.41;;;12.31;89.99
55066;BME280;40964;42.114;24.220;2023-04-26T04:17:45;96849.19;;;12.54;88.57
55066;BME280;40964;42.114;24.220;2023-04-26T04:20:11;96848.66;;;12.94;86.22
55066;BME280;40964;42.114;24.220;2023-04-26T04:22:37;96845.91;;;13.16;86.95
55066;BME280;40964;42.114;24.220;2023-04-26T04:25:07;96848.41;;;13.32;82.94
55066;BME280;40964;42.114;24.220;2023-04-26T04:27:35;96842.44;;;13.57;83.06
55066;BME280;40964;42.114;24.220;2023-04-26T04:30:02;96852.47;;;13.55;83.15
55066;BME280;40964;42.114;24.220;2023-04-26T04:32:29;96848.22;;;13.49;82.24
55066;BME280;40964;42.114;24.220;2023-04-26T04:34:57;96855.34;;;13.49;82.59
55066;BME280;40964;42.114;24.220;2023-04-26T04:37:23;96850.31;;;13.47;83.16
55066;BME280;40964;42.114;24.220;2023-04-26T04:39:51;96853.81;;;13.58;84.28
55066;BME280;40964;42.114;24.220;2023-04-26T04:42:16;96856.97;;;13.60;84.31
55066;BME280;40964;42.114;24.220;2023-04-26T04:44:42;96857.28;;;13.74;85.84
55066;BME280;40964;42.114;24.220;2023-04-26T04:47:07;96855.47;;;13.79;83.50
55066;BME280;40964;42.114;24.220;2023-04-26T04:49:33;96854.97;;;13.87;83.56
55066;BME280;40964;42.114;24.220;2023-04-26T04:51:58;96857.03;;;13.70;83.41
55066;BME280;40964;42.114;24.220;2023-04-26T04:54:24;96856.53;;;13.78;83.17
55066;BME280;40964;42.114;24.220;2023-04-26T04:56:49;96854.00;;;13.41;86.35
55066;BME280;40964;42.114;24.220;2023-04-26T04:59:15;96846.78;;;13.21;88.75
55066;BME280;40964;42.114;24.220;2023-04-26T05:01:40;96852.06;;;13.26;88.19
55066;BME280;40964;42.114;24.220;2023-04-26T05:04:06;96848.03;;;13.14;87.55
55066;BME280;40964;42.114;24.220;2023-04-26T05:06:31;96854.50;;;13.38;87.83
55066;BME280;40964;42.114;24.220;2023-04-26T05:08:57;96851.84;;;13.33;84.87
55066;BME280;40964;42.114;24.220;2023-04-26T05:11:23;96852.84;;;13.27;85.15
55066;BME280;40964;42.114;24.220;2023-04-26T05:13:48;96842.59;;;13.30;84.31
55066;BME280;40964;42.114;24.220;2023-04-26T05:16:14;96845.53;;;13.39;83.68
55066;BME280;40964;42.114;24.220;2023-04-26T05:18:40;96851.38;;;13.46;81.43
55066;BME280;40964;42.114;24.220;2023-04-26T05:21:05;96854.94;;;13.77;78.45
55066;BME280;40964;42.114;24.220;2023-04-26T05:23:31;96853.41;;;14.07;77.71
55066;BME280;40964;42.114;24.220;2023-04-26T05:26:18;96855.06;;;14.38;77.66
55066;BME280;40964;42.114;24.220;2023-04-26T05:28:43;96852.16;;;14.40;76.84
55066;BME280;40964;42.114;24.220;2023-04-26T05:31:10;96846.06;;;14.39;75.44
55066;BME280;40964;42.114;24.220;2023-04-26T05:33:36;96844.25;;;14.50;77.17
55066;BME280;40964;42.114;24.220;2023-04-26T05:36:01;96851.13;;;14.56;73.16
55066;BME280;40964;42.114;24.220;2023-04-26T05:38:27;96853.22;;;14.39;74.20
55066;BME280;40964;42.114;24.220;2023-04-26T05:40:54;96852.41;;;14.33;75.80
55066;BME280;40964;42.114;24.220;2023-04-26T05:43:19;96854.22;;;14.17;76.72
55066;BME280;40964;42.114;24.220;2023-04-26T05:48:17;96851.31;;;14.04;78.20
55066;BME280;40964;42.114;24.220;2023-04-26T05:50:42;96852.66;;;14.11;78.74
55066;BME280;40964;42.114;24.220;2023-04-26T05:53:07;96858.66;;;13.86;78.49
55066;BME280;40964;42.114;24.220;2023-04-26T05:55:33;96858.66;;;13.91;79.49
55066;BME280;40964;42.114;24.220;2023-04-26T05:57:58;96859.44;;;13.92;77.18
55066;BME280;40964;42.114;24.220;2023-04-26T06:00:24;96858.22;;;14.25;77.48
55066;BME280;40964;42.114;24.220;2023-04-26T06:02:50;96848.75;;;14.50;75.45
55066;BME280;40964;42.114;24.220;2023-04-26T06:05:15;96835.78;;;14.68;74.10
55066;BME280;40964;42.114;24.220;2023-04-26T06:07:41;96855.06;;;14.79;74.42
55066;BME280;40964;42.114;24.220;2023-04-26T06:10:07;96852.44;;;14.74;75.28
55066;BME280;40964;42.114;24.220;2023-04-26T06:12:32;96856.16;;;14.78;72.47
55066;BME280;40964;42.114;24.220;2023-04-26T06:14:58;96852.94;;;14.81;72.24
55066;BME280;40964;42.114;24.220;2023-04-26T06:17:23;96851.88;;;14.82;74.82
55066;BME280;40964;42.114;24.220;2023-04-26T06:19:49;96851.91;;;14.87;75.71
55066;BME280;40964;42.114;24.220;2023-04-26T06:22:15;96846.03;;;15.05;74.50
55066;BME280;40964;42.114;24.220;2023-04-26T06:24:40;96846.31;;;15.04;72.97
55066;BME280;40964;42.114;24.220;2023-04-26T06:27:05;96845.28;;;14.95;74.44
55066;BME280;40964;42.114;24.220;2023-04-26T06:29:31;96843.41;;;14.90;75.72
55066;BME280;40964;42.114;24.220;2023-04-26T06:31:57;96842.91;;;14.78;74.76
55066;BME280;40964;42.114;24.220;2023-04-26T06:34:22;96838.91;;;14.91;73.87
55066;BME280;40964;42.114;24.220;2023-04-26T06:36:48;96841.56;;;14.91;72.95
55066;BME280;40964;42.114;24.220;2023-04-26T06:39:13;96834.13;;;15.03;72.17
55066;BME280;40964;42.114;24.220;2023-04-26T06:41:39;96841.41;;;15.57;70.08
55066;BME280;40964;42.114;24.220;2023-04-26T06:44:04;96838.53;;;16.03;65.56
55066;BME280;40964;42.114;24.220;2023-04-26T06:46:30;96835.69;;;16.33;66.53
55066;BME280;40964;42.114;24.220;2023-04-26T06:48:55;96839.38;;;16.37;66.39
55066;BME280;40964;42.114;24.220;2023-04-26T06:51:21;96836.59;;;16.53;64.77
55066;BME280;40964;42.114;24.220;2023-04-26T06:53:47;96840.78;;;16.64;65.28
55066;BME280;40964;42.114;24.220;2023-04-26T06:56:12;96840.00;;;16.58;65.40
55066;BME280;40964;42.114;24.220;2023-04-26T06:58:38;96843.88;;;16.76;67.93
55066;BME280;40964;42.114;24.220;2023-04-26T07:01:03;96838.06;;;16.74;64.87
55066;BME280;40964;42.114;24.220;2023-04-26T07:03:30;96830.09;;;16.74;64.73
55066;BME280;40964;42.114;24.220;2023-04-26T07:05:56;96840.47;;;16.70;65.65
55066;BME280;40964;42.114;24.220;2023-04-26T07:08:22;96844.03;;;16.90;64.32
55066;BME280;40964;42.114;24.220;2023-04-26T07:10:47;96839.50;;;16.90;64.29
55066;BME280;40964;42.114;24.220;2023-04-26T07:15:48;96851.00;;;17.34;60.76
55066;BME280;40964;42.114;24.220;2023-04-26T07:18:13;96848.75;;;17.22;65.58
55066;BME280;40964;42.114;24.220;2023-04-26T07:20:38;96846.66;;;17.19;59.69
55066;BME280;40964;42.114;24.220;2023-04-26T07:23:04;96838.78;;;17.33;63.50
55066;BME280;40964;42.114;24.220;2023-04-26T07:25:29;96846.47;;;17.34;61.31
55066;BME280;40964;42.114;24.220;2023-04-26T07:27:55;96845.81;;;17.47;59.85
55066;BME280;40964;42.114;24.220;2023-04-26T07:30:20;96842.28;;;17.52;59.25
55066;BME280;40964;42.114;24.220;2023-04-26T07:32:46;96853.31;;;17.40;61.72
55066;BME280;40964;42.114;24.220;2023-04-26T07:35:11;96843.53;;;17.12;50.83
55066;BME280;40964;42.114;24.220;2023-04-26T07:37:41;96844.63;;;16.42;55.57
55066;BME280;40964;42.114;24.220;2023-04-26T07:40:07;96847.22;;;16.13;56.59
55066;BME280;40964;42.114;24.220;2023-04-26T07:42:34;96862.88;;;16.15;57.31
55066;BME280;40964;42.114;24.220;2023-04-26T07:45:00;96845.28;;;15.85;58.36
55066;BME280;40964;42.114;24.220;2023-04-26T07:47:25;96854.47;;;15.98;57.29
55066;BME280;40964;42.114;24.220;2023-04-26T07:49:53;96859.78;;;15.98;60.04
55066;BME280;40964;42.114;24.220;2023-04-26T07:52:19;96845.00;;;15.81;60.86
55066;BME280;40964;42.114;24.220;2023-04-26T07:54:44;96849.63;;;15.60;62.45
55066;BME280;40964;42.114;24.220;2023-04-26T07:57:11;96857.50;;;15.76;60.41
55066;BME280;40964;42.114;24.220;2023-04-26T07:59:36;96856.91;;;15.89;59.17
55066;BME280;40964;42.114;24.220;2023-04-26T08:02:01;96856.03;;;16.09;59.11
55066;BME280;40964;42.114;24.220;2023-04-26T08:04:31;96851.66;;;16.23;56.36
55066;BME280;40964;42.114;24.220;2023-04-26T08:07:00;96860.69;;;16.27;57.83
55066;BME280;40964;42.114;24.220;2023-04-26T08:09:27;96860.69;;;16.27;60.69
55066;BME280;40964;42.114;24.220;2023-04-26T08:11:53;96848.47;;;16.26;54.47
55066;BME280;40964;42.114;24.220;2023-04-26T08:14:18;96854.47;;;16.42;57.14
55066;BME280;40964;42.114;24.220;2023-04-26T08:16:44;96840.88;;;16.49;56.40
55066;BME280;40964;42.114;24.220;2023-04-26T08:19:09;96845.13;;;16.50;56.89
55066;BME280;40964;42.114;24.220;2023-04-26T08:21:35;96836.47;;;16.34;56.46
55066;BME280;40964;42.114;24.220;2023-04-26T08:24:00;96838.09;;;16.30;57.62
55066;BME280;40964;42.114;24.220;2023-04-26T08:26:26;96842.03;;;16.37;56.34
55066;BME280;40964;42.114;24.220;2023-04-26T08:28:51;96836.75;;;16.32;57.45
55066;BME280;40964;42.114;24.220;2023-04-26T08:31:17;96839.09;;;16.39;59.44
55066;BME280;40964;42.114;24.220;2023-04-26T08:33:42;96838.56;;;16.76;56.23
55066;BME280;40964;42.114;24.220;2023-04-26T08:36:08;96835.03;;;16.86;59.94
55066;BME280;40964;42.114;24.220;2023-04-26T08:38:33;96840.22;;;16.96;57.41
55066;BME280;40964;42.114;24.220;2023-04-26T08:40:59;96839.16;;;16.97;57.01
55066;BME280;40964;42.114;24.220;2023-04-26T08:43:28;96835.00;;;17.15;56.47
55066;BME280;40964;42.114;24.220;2023-04-26T08:45:53;96834.31;;;16.75;54.38
55066;BME280;40964;42.114;24.220;2023-04-26T08:48:19;96830.09;;;16.74;57.98
55066;BME280;40964;42.114;24.220;2023-04-26T08:50:46;96844.75;;;16.95;56.94
55066;BME280;40964;42.114;24.220;2023-04-26T08:53:16;96841.22;;;17.05;55.92
55066;BME280;40964;42.114;24.220;2023-04-26T08:55:46;96840.56;;;16.89;54.77
55066;BME280;40964;42.114;24.220;2023-04-26T08:58:12;96844.09;;;16.80;52.57
55066;BME280;40964;42.114;24.220;2023-04-26T09:00:38;96849.53;;;16.64;55.42
55066;BME280;40964;42.114;24.220;2023-04-26T09:03:03;96839.94;;;16.68;57.52
55066;BME280;40964;42.114;24.220;2023-04-26T09:05:29;96854.97;;;16.44;55.00
55066;BME280;40964;42.114;24.220;2023-04-26T09:08:00;96854.66;;;16.51;56.22
55066;BME280;40964;42.114;24.220;2023-04-26T09:10:26;96854.94;;;16.49;54.98
55066;BME280;40964;42.114;24.220;2023-04-26T09:12:52;96861.47;;;16.62;53.14
55066;BME280;40964;42.114;24.220;2023-04-26T09:15:20;96854.91;;;16.54;53.10
55066;BME280;40964;42.114;24.220;2023-04-26T09:17:47;96868.88;;;16.31;53.47
55066;BME280;40964;42.114;24.220;2023-04-26T09:20:25;96859.13;;;16.21;52.67
55066;BME280;40964;42.114;24.220;2023-04-26T09:23:04;96870.50;;;16.27;58.21
55066;BME280;40964;42.114;24.220;2023-04-26T09:25:30;96851.75;;;16.08;56.71
55066;BME280;40964;42.114;24.220;2023-04-26T09:27:57;96867.84;;;15.82;55.69
55066;BME280;40964;42.114;24.220;2023-04-26T09:30:23;96863.78;;;15.90;59.07
55066;BME280;40964;42.114;24.220;2023-04-26T09:32:59;96867.59;;;15.74;58.14
55066;BME280;40964;42.114;24.220;2023-04-26T09:35:30;96866.81;;;15.63;58.76
55066;BME280;40964;42.114;24.220;2023-04-26T09:40:22;96861.06;;;15.46;60.71
55066;BME280;40964;42.114;24.220;2023-04-26T09:45:30;96870.03;;;15.45;61.96
55066;BME280;40964;42.114;24.220;2023-04-26T09:48:13;96868.97;;;15.56;62.41
55066;BME280;40964;42.114;24.220;2023-04-26T09:50:41;96870.31;;;15.48;62.25
55066;BME280;40964;42.114;24.220;2023-04-26T09:53:07;96879.91;;;15.29;61.99
55066;BME280;40964;42.114;24.220;2023-04-26T09:55:33;96875.09;;;15.36;65.25
55066;BME280;40964;42.114;24.220;2023-04-26T09:58:07;96884.88;;;15.51;66.66
55066;BME280;40964;42.114;24.220;2023-04-26T10:00:33;96873.25;;;15.47;64.86
55066;BME280;40964;42.114;24.220;2023-04-26T10:03:00;96864.81;;;15.24;72.68
55066;BME280;40964;42.114;24.220;2023-04-26T10:05:26;96868.56;;;14.88;71.29
55066;BME280;40964;42.114;24.220;2023-04-26T10:07:52;96871.22;;;14.62;74.31
55066;BME280;40964;42.114;24.220;2023-04-26T10:10:17;96864.09;;;14.47;71.66
55066;BME280;40964;42.114;24.220;2023-04-26T10:12:43;96847.44;;;14.57;77.11
55066;BME280;40964;42.114;24.220;2023-04-26T10:15:10;96850.59;;;14.59;79.46
55066;BME280;40964;42.114;24.220;2023-04-26T10:17:37;96849.00;;;14.58;80.61
55066;BME280;40964;42.114;24.220;2023-04-26T10:20:06;96844.22;;;14.91;78.23
55066;BME280;40964;42.114;24.220;2023-04-26T10:22:43;96834.09;;;15.18;78.70
55066;BME280;40964;42.114;24.220;2023-04-26T10:25:09;96842.53;;;15.25;76.84
55066;BME280;40964;42.114;24.220;2023-04-26T10:30:13;96838.47;;;15.53;78.33
55066;BME280;40964;42.114;24.220;2023-04-26T10:33:10;96828.53;;;15.89;75.76
55066;BME280;40964;42.114;24.220;2023-04-26T10:36:18;96832.81;;;16.25;73.23
55066;BME280;40964;42.114;24.220;2023-04-26T10:39:17;96830.09;;;16.74;73.03
55066;BME280;40964;42.114;24.220;2023-04-26T10:41:42;96832.84;;;16.93;65.52
55066;BME280;40964;42.114;24.220;2023-04-26T10:44:37;96828.38;;;17.12;65.52
55066;BME280;40964;42.114;24.220;2023-04-26T10:47:05;96825.69;;;17.17;62.69
55066;BME280;40964;42.114;24.220;2023-04-26T10:49:43;96816.03;;;17.26;63.20
55066;BME280;40964;42.114;24.220;2023-04-26T10:52:11;96817.34;;;17.24;59.11
55066;BME280;40964;42.114;24.220;2023-04-26T10:54:54;96819.94;;;17.05;56.24
55066;BME280;40964;42.114;24.220;2023-04-26T10:57:21;96815.97;;;17.08;60.03
55066;BME280;40964;42.114;24.220;2023-04-26T11:03:04;96820.63;;;16.92;57.41
55066;BME280;40964;42.114;24.220;2023-04-26T11:05:52;96823.28;;;16.92;58.70
55066;BME280;40964;42.114;24.220;2023-04-26T11:08:29;96820.41;;;17.12;60.54
55066;BME280;40964;42.114;24.220;2023-04-26T11:13:45;96821.34;;;17.26;55.89
55066;BME280;40964;42.114;24.220;2023-04-26T11:16:12;96828.50;;;17.02;50.91
55066;BME280;40964;42.114;24.220;2023-04-26T11:18:42;96823.41;;;17.06;48.75
55066;BME280;40964;42.114;24.220;2023-04-26T11:21:09;96814.56;;;16.86;48.05
55066;BME280;40964;42.114;24.220;2023-04-26T11:23:34;96824.00;;;16.73;50.66
55066;BME280;40964;42.114;24.220;2023-04-26T11:26:05;96822.41;;;16.67;49.29
55066;BME280;40964;42.114;24.220;2023-04-26T11:28:36;96820.53;;;16.68;48.96
55066;BME280;40964;42.114;24.220;2023-04-26T11:31:03;96824.13;;;16.53;52.49
55066;BME280;40964;42.114;24.220;2023-04-26T11:33:29;96831.22;;;16.63;53.56
55066;BME280;40964;42.114;24.220;2023-04-26T11:35:56;96832.34;;;16.91;51.68
55066;BME280;40964;42.114;24.220;2023-04-26T11:38:26;96819.78;;;16.96;48.30
55066;BME280;40964;42.114;24.220;2023-04-26T11:41:00;96829.50;;;17.06;49.01
55066;BME280;40964;42.114;24.220;2023-04-26T11:43:44;96824.44;;;17.10;47.81
55066;BME280;40964;42.114;24.220;2023-04-26T11:46:09;96818.25;;;16.90;48.85
55066;BME280;40964;42.114;24.220;2023-04-26T11:48:36;96813.28;;;16.84;46.49
55066;BME280;40964;42.114;24.220;2023-04-26T11:51:03;96819.28;;;16.94;50.28
55066;BME280;40964;42.114;24.220;2023-04-26T11:56:03;96812.94;;;16.90;49.27
55066;BME280;40964;42.114;24.220;2023-04-26T11:58:29;96813.22;;;16.89;48.52
55066;BME280;40964;42.114;24.220;2023-04-26T12:00:59;96802.94;;;17.06;47.37
55066;BME280;40964;42.114;24.220;2023-04-26T12:03:33;96807.63;;;17.14;47.50
55066;BME280;40964;42.114;24.220;2023-04-26T12:06:04;96807.41;;;17.11;46.12
55066;BME280;40964;42.114;24.220;2023-04-26T12:08:31;96817.50;;;16.85;48.04
55066;BME280;40964;42.114;24.220;2023-04-26T12:11:03;96808.19;;;16.87;46.92
55066;BME280;40964;42.114;24.220;2023-04-26T12:13:29;96815.53;;;16.71;46.93
55066;BME280;40964;42.114;24.220;2023-04-26T12:15:54;96813.69;;;16.62;45.84
55066;BME280;40964;42.114;24.220;2023-04-26T12:18:20;96819.38;;;16.50;46.50
55066;BME280;40964;42.114;24.220;2023-04-26T12:20:57;96822.59;;;16.47;47.20
55066;BME280;40964;42.114;24.220;2023-04-26T12:23:22;96822.25;;;16.20;48.65
55066;BME280;40964;42.114;24.220;2023-04-26T12:25:55;96819.22;;;15.97;47.92
55066;BME280;40964;42.114;24.220;2023-04-26T12:28:23;96814.81;;;15.82;49.33
55066;BME280;40964;42.114;24.220;2023-04-26T12:30:50;96818.81;;;15.70;50.87
55066;BME280;40964;42.114;24.220;2023-04-26T12:33:15;96812.75;;;15.54;50.51
55066;BME280;40964;42.114;24.220;2023-04-26T12:35:41;96827.34;;;15.51;55.88
55066;BME280;40964;42.114;24.220;2023-04-26T12:38:07;96817.41;;;15.28;60.42
55066;BME280;40964;42.114;24.220;2023-04-26T12:40:33;96823.25;;;15.20;60.01
55066;BME280;40964;42.114;24.220;2023-04-26T12:42:58;96831.47;;;15.13;59.77
55066;BME280;40964;42.114;24.220;2023-04-26T12:45:24;96832.03;;;14.90;60.25
55066;BME280;40964;42.114;24.220;2023-04-26T12:47:52;96837.06;;;14.86;61.67
55066;BME280;40964;42.114;24.220;2023-04-26T12:50:18;96842.66;;;14.85;62.75
55066;BME280;40964;42.114;24.220;2023-04-26T12:52:44;96841.31;;;14.77;59.90
55066;BME280;40964;42.114;24.220;2023-04-26T12:55:12;96841.31;;;14.72;62.64
55066;BME280;40964;42.114;24.220;2023-04-26T12:57:42;96832.59;;;14.61;60.59
55066;BME280;40964;42.114;24.220;2023-04-26T13:00:12;96830.50;;;14.58;59.61
55066;BME280;40964;42.114;24.220;2023-04-26T13:02:38;96830.22;;;14.55;57.67
55066;BME280;40964;42.114;24.220;2023-04-26T13:05:04;96822.28;;;14.60;57.65
55066;BME280;40964;42.114;24.220;2023-04-26T13:07:32;96824.66;;;14.71;56.13
55066;BME280;40964;42.114;24.220;2023-04-26T13:09:58;96826.00;;;14.74;55.57
55066;BME280;40964;42.114;24.220;2023-04-26T13:12:24;96814.59;;;14.79;56.19
55066;BME280;40964;42.114;24.220;2023-04-26T13:14:49;96825.69;;;14.86;55.42